createdAt,value
2022-12-15T00:00:16.001Z,89.01
2022-12-15T00:03:41.586Z,88.95
2022-12-15T00:07:07.779Z,88.55
2022-12-15T00:10:34.024Z,88.29
2022-12-15T00:13:59.721Z,87.67
2022-12-15T00:17:26.980Z,87.44
2022-12-15T00:20:52.675Z,87.98
2022-12-15T00:24:18.682Z,87.31
2022-12-15T00:27:44.261Z,87.68
2022-12-15T00:31:10.335Z,87.37
2022-12-15T00:34:37.585Z,86.30
2022-12-15T00:38:03.461Z,86.91
2022-12-15T00:41:13.539Z,86.09
2022-12-15T00:44:23.207Z,86.76
2022-12-15T00:47:34.508Z,86.91
2022-12-15T00:50:54.358Z,86.64
2022-12-15T00:54:20.332Z,87.11
2022-12-15T00:57:46.252Z,86.20
2022-12-15T01:01:11.913Z,86.03
2022-12-15T01:04:37.533Z,85.78
2022-12-15T01:08:04.454Z,86.34
2022-12-15T01:11:30.268Z,85.46
2022-12-15T01:14:56.270Z,86.34
2022-12-15T01:18:22.160Z,85.96
2022-12-15T01:21:32.978Z,85.43
2022-12-15T01:24:42.649Z,85.44
2022-12-15T01:27:52.012Z,85.51
2022-12-15T01:31:00.277Z,84.56
2022-12-15T01:34:08.739Z,85.32
2022-12-15T01:37:17.267Z,85.28
2022-12-15T01:40:44.310Z,85.68
2022-12-15T01:43:52.530Z,84.78
2022-12-15T01:47:00.780Z,84.72
2022-12-15T01:50:15.561Z,84.82
2022-12-15T01:53:24.774Z,85.13
2022-12-15T01:56:40.243Z,84.14
2022-12-15T01:59:53.620Z,85.06
2022-12-15T02:03:04.822Z,85.32
2022-12-15T02:06:15.180Z,85.84
2022-12-15T02:09:28.701Z,85.67
2022-12-15T02:12:46.620Z,85.11
2022-12-15T02:16:03.905Z,85.39
2022-12-15T02:19:54.316Z,85.61
2022-12-15T02:23:35.613Z,84.99
2022-12-15T02:27:16.663Z,85.42
2022-12-15T02:30:40.295Z,84.86
2022-12-15T02:33:55.865Z,84.33
2022-12-15T02:37:11.475Z,84.33
2022-12-15T02:40:20.042Z,85.39
2022-12-15T02:43:31.409Z,85.45
2022-12-15T02:47:04.833Z,85.26
2022-12-15T02:50:49.977Z,84.78
2022-12-15T02:54:34.242Z,84.83
2022-12-15T02:57:59.126Z,84.80
2022-12-15T03:01:15.966Z,84.02
2022-12-15T03:04:28.506Z,84.42
2022-12-15T03:07:36.777Z,84.79
2022-12-15T03:10:45.108Z,84.13
2022-12-15T03:13:54.951Z,84.59
2022-12-15T03:17:04.107Z,84.14
2022-12-15T03:20:14.204Z,83.37
2022-12-15T03:23:23.564Z,83.59
2022-12-15T03:26:31.952Z,84.09
2022-12-15T03:29:40.256Z,84.53
2022-12-15T03:32:48.757Z,84.04
2022-12-15T03:35:58.520Z,84.81
2022-12-15T03:39:07.118Z,83.63
2022-12-15T03:42:35.359Z,82.34
2022-12-15T03:45:43.787Z,84.39
2022-12-15T03:48:52.226Z,83.73
2022-12-15T03:52:01.909Z,83.85
2022-12-15T03:55:12.801Z,83.79
2022-12-15T03:58:21.102Z,83.64
2022-12-15T04:01:33.052Z,84.09
2022-12-15T04:04:41.422Z,83.83
2022-12-15T04:07:51.286Z,83.86
2022-12-15T04:10:59.748Z,84.23
2022-12-15T04:14:08.138Z,84.55
2022-12-15T04:17:17.635Z,84.08
2022-12-15T04:20:26.532Z,84.21
2022-12-15T04:23:36.082Z,83.55
2022-12-15T04:27:01.985Z,84.15
2022-12-15T04:30:30.123Z,83.48
2022-12-15T04:33:59.878Z,82.94
2022-12-15T04:37:30.057Z,83.08
2022-12-15T04:40:57.466Z,83.27
2022-12-15T04:44:24.216Z,82.78
2022-12-15T04:47:50.099Z,84.07
2022-12-15T04:51:16.053Z,83.36
2022-12-15T04:54:41.887Z,83.28
2022-12-15T04:58:09.246Z,83.73
2022-12-15T05:01:35.601Z,83.58
2022-12-15T05:05:01.898Z,83.93
2022-12-15T05:08:27.901Z,83.64
2022-12-15T05:11:53.474Z,82.91
2022-12-15T05:15:20.722Z,83.23
2022-12-15T05:18:46.645Z,83.02
2022-12-15T05:22:12.501Z,82.57
2022-12-15T05:25:38.296Z,83.16
2022-12-15T05:29:04.169Z,83.39
2022-12-15T05:32:14.269Z,83.36
2022-12-15T05:35:22.708Z,83.15
2022-12-15T05:38:31.254Z,83.53
2022-12-15T05:41:42.242Z,83.75
2022-12-15T05:44:50.435Z,84.06
2022-12-15T05:48:00.117Z,83.08
2022-12-15T05:51:11.072Z,84.18
2022-12-15T05:54:21.019Z,82.96
2022-12-15T05:57:29.288Z,83.59
2022-12-15T06:00:39.143Z,83.85
2022-12-15T06:03:49.171Z,83.53
2022-12-15T06:06:57.467Z,83.41
2022-12-15T06:10:06.794Z,83.58
2022-12-15T06:13:15.190Z,83.46
2022-12-15T06:16:30.079Z,83.31
2022-12-15T06:19:39.785Z,83.65
2022-12-15T06:22:50.372Z,83.46
2022-12-15T06:25:58.626Z,83.38
2022-12-15T06:29:10.560Z,84.53
2022-12-15T06:32:18.737Z,83.99
2022-12-15T06:35:28.372Z,83.35
2022-12-15T06:38:37.924Z,83.69
2022-12-15T06:41:46.588Z,82.66
2022-12-15T06:44:54.787Z,82.49
2022-12-15T06:48:03.264Z,83.62
2022-12-15T06:51:17.166Z,83.39
2022-12-15T06:54:25.887Z,84.29
2022-12-15T06:57:34.212Z,84.11
2022-12-15T07:00:45.498Z,83.29
2022-12-15T07:03:55.291Z,82.87
2022-12-15T07:07:05.131Z,83.26
2022-12-15T07:10:14.087Z,82.69
2022-12-15T07:13:22.421Z,83.05
2022-12-15T07:16:31.607Z,83.67
2022-12-15T07:19:40.196Z,83.21
2022-12-15T07:22:53.453Z,83.16
2022-12-15T07:26:11.288Z,83.71
2022-12-15T07:29:23.501Z,84.00
2022-12-15T07:32:32.007Z,82.92
2022-12-15T07:35:40.296Z,83.70
2022-12-15T07:38:51.257Z,82.89
2022-12-15T07:41:59.933Z,83.67
2022-12-15T07:45:10.948Z,84.00
2022-12-15T07:48:19.846Z,83.61
2022-12-15T07:51:28.856Z,83.25
2022-12-15T07:54:38.479Z,84.23
2022-12-15T07:57:48.729Z,84.42
2022-12-15T08:01:02.011Z,82.67
2022-12-15T08:04:11.511Z,83.93
2022-12-15T08:07:20.418Z,84.19
2022-12-15T08:10:31.002Z,84.03
2022-12-15T08:17:09.023Z,82.39
2022-12-15T08:20:17.499Z,82.57
2022-12-15T08:23:26.021Z,82.78
2022-12-15T08:26:37.860Z,83.64
2022-12-15T08:29:51.011Z,83.51
2022-12-15T08:33:00.027Z,82.38
2022-12-15T08:36:12.927Z,82.14
2022-12-15T08:39:21.392Z,82.10
2022-12-15T08:42:34.885Z,82.73
2022-12-15T08:45:43.438Z,83.29
2022-12-15T08:48:52.835Z,82.68
2022-12-15T08:52:01.286Z,81.51
2022-12-15T08:55:13.939Z,81.45
2022-12-15T08:58:25.384Z,82.23
2022-12-15T09:01:39.251Z,81.96
2022-12-15T09:04:47.955Z,80.76
2022-12-15T09:08:04.631Z,79.79
2022-12-15T09:11:17.959Z,79.51
2022-12-15T09:14:29.641Z,79.04
2022-12-15T09:17:37.987Z,79.39
2022-12-15T09:20:46.343Z,78.48
2022-12-15T09:23:58.355Z,78.81
2022-12-15T09:27:06.533Z,79.28
2022-12-15T09:30:16.566Z,79.26
2022-12-15T09:33:24.780Z,79.00
2022-12-15T09:36:34.541Z,78.75
2022-12-15T09:39:42.816Z,78.50
2022-12-15T09:43:25.762Z,78.15
2022-12-15T09:46:50.392Z,78.20
2022-12-15T09:50:03.043Z,77.29
2022-12-15T09:53:52.551Z,77.37
2022-12-15T09:56:55.951Z,76.50
2022-12-15T10:00:21.118Z,76.25
2022-12-15T10:03:55.608Z,75.84
2022-12-15T10:07:13.850Z,76.35
2022-12-15T10:10:32.991Z,76.45
2022-12-15T10:13:51.796Z,76.13
2022-12-15T10:17:14.101Z,76.73
2022-12-15T10:20:28.711Z,76.67
2022-12-15T10:23:38.790Z,77.00
2022-12-15T10:26:58.394Z,76.37
2022-12-15T10:30:11.830Z,75.65
2022-12-15T10:33:24.224Z,74.79
2022-12-15T10:36:33.921Z,74.40
2022-12-15T10:39:46.166Z,74.83
2022-12-15T10:42:59.164Z,74.86
2022-12-15T10:46:15.277Z,75.00
2022-12-15T10:49:25.295Z,74.56
2022-12-15T10:52:38.353Z,74.63
2022-12-15T10:55:49.801Z,76.27
2022-12-15T10:59:02.794Z,76.92
2022-12-15T11:02:34.390Z,77.35
2022-12-15T11:05:53.720Z,77.32
2022-12-15T11:09:28.939Z,76.71
2022-12-15T11:12:58.219Z,75.97
2022-12-15T11:16:17.626Z,75.62
2022-12-15T11:19:39.657Z,76.35
2022-12-15T11:22:54.142Z,76.80
2022-12-15T11:26:36.783Z,76.25
2022-12-15T11:30:00.313Z,75.82
2022-12-15T11:33:10.838Z,74.68
2022-12-15T11:36:38.842Z,74.45
2022-12-15T11:40:13.160Z,75.41
2022-12-15T11:43:47.051Z,74.67
2022-12-15T11:47:16.890Z,73.71
2022-12-15T11:50:32.458Z,73.81
2022-12-15T11:54:15.545Z,73.52
2022-12-15T11:58:06.766Z,74.44
2022-12-15T12:01:54.017Z,73.79
2022-12-15T12:05:38.143Z,72.51
2022-12-15T12:09:20.394Z,73.72
2022-12-15T12:12:39.199Z,73.68
2022-12-15T12:15:58.660Z,72.83
2022-12-15T12:19:15.851Z,74.70
2022-12-15T12:22:31.499Z,74.03
2022-12-15T12:25:48.940Z,73.28
2022-12-15T12:29:07.683Z,74.41
2022-12-15T12:32:28.805Z,74.33
2022-12-15T12:35:47.542Z,76.54
2022-12-15T12:38:59.279Z,76.58
2022-12-15T12:42:17.942Z,74.96
2022-12-15T12:45:33.298Z,75.71
2022-12-15T12:48:49.289Z,74.20
2022-12-15T12:52:03.917Z,75.05
2022-12-15T12:55:29.384Z,74.71
2022-12-15T12:58:41.429Z,76.44
2022-12-15T13:01:50.443Z,76.46
2022-12-15T13:05:05.142Z,77.58
2022-12-15T13:08:53.356Z,77.07
2022-12-15T13:15:44.023Z,78.41
2022-12-15T13:19:04.566Z,76.75
2022-12-15T13:22:25.884Z,78.03
2022-12-15T13:25:53.723Z,78.41
2022-12-15T13:29:04.040Z,79.21
2022-12-15T13:32:30.704Z,79.75
2022-12-15T13:35:43.420Z,79.62
2022-12-15T13:38:56.814Z,79.85
2022-12-15T13:42:52.860Z,80.34
2022-12-15T13:46:16.003Z,81.57
2022-12-15T13:49:33.192Z,81.96
2022-12-15T13:56:50.777Z,80.47
2022-12-15T14:00:08.437Z,80.96
2022-12-15T14:03:23.919Z,81.50
2022-12-15T14:06:38.519Z,81.76
2022-12-15T14:09:51.947Z,80.95
2022-12-15T14:13:16.113Z,80.97
2022-12-15T14:16:27.570Z,82.05
2022-12-15T14:19:40.488Z,82.49
2022-12-15T14:22:50.537Z,83.18
2022-12-15T14:29:27.371Z,83.16
2022-12-15T14:32:38.222Z,83.50
2022-12-15T14:35:51.943Z,84.12
2022-12-15T14:39:04.900Z,83.80
2022-12-15T14:42:23.379Z,84.22
2022-12-15T14:45:33.812Z,83.57
2022-12-15T14:48:54.075Z,83.69
2022-12-15T14:52:07.115Z,83.68
2022-12-15T14:55:35.033Z,83.34
2022-12-15T14:58:43.354Z,83.68
2022-12-15T15:01:59.078Z,84.02
2022-12-15T15:03:07.288Z,77.49
2022-12-15T15:05:27.954Z,83.61
2022-12-15T15:08:44.333Z,84.29
2022-12-15T15:11:57.062Z,83.88
2022-12-15T15:15:09.101Z,84.74
2022-12-15T15:18:21.814Z,84.15
2022-12-15T15:21:36.875Z,85.48
2022-12-15T15:24:52.816Z,84.31
2022-12-15T15:28:16.330Z,85.01
2022-12-15T15:31:40.922Z,84.66
2022-12-15T15:34:51.091Z,84.68
2022-12-15T15:38:08.218Z,83.93
2022-12-15T15:41:19.846Z,83.96
2022-12-15T15:44:28.063Z,83.82
2022-12-15T15:47:36.787Z,84.01
2022-12-15T15:50:47.268Z,84.18
2022-12-15T15:54:02.625Z,84.66
2022-12-15T15:57:15.271Z,84.32
2022-12-15T16:00:26.925Z,83.74
2022-12-15T16:03:36.028Z,84.25
2022-12-15T16:06:47.607Z,84.99
2022-12-15T16:09:58.201Z,84.93
2022-12-15T16:13:06.590Z,85.09
2022-12-15T16:16:22.266Z,85.34
2022-12-15T16:19:33.806Z,85.96
2022-12-15T16:22:51.036Z,85.03
2022-12-15T16:26:01.368Z,86.09
2022-12-15T16:29:16.200Z,85.82
2022-12-15T16:32:24.876Z,85.63
2022-12-15T16:35:33.548Z,85.80
2022-12-15T16:38:45.123Z,86.97
2022-12-15T16:41:57.456Z,86.66
2022-12-15T16:45:16.999Z,86.88
2022-12-15T16:48:25.723Z,85.87
2022-12-15T16:51:40.690Z,86.45
2022-12-15T16:54:51.343Z,87.45
2022-12-15T16:58:06.077Z,87.13
2022-12-15T17:01:15.913Z,87.30
2022-12-15T17:04:27.113Z,86.63
2022-12-15T17:07:35.581Z,86.59
2022-12-15T17:10:45.430Z,86.67
2022-12-15T17:14:00.877Z,85.62
2022-12-15T17:17:16.074Z,86.38
2022-12-15T17:20:30.307Z,86.70
2022-12-15T17:23:41.166Z,85.93
2022-12-15T17:26:50.173Z,86.47
2022-12-15T17:30:02.955Z,85.74
2022-12-15T17:33:19.971Z,86.35
2022-12-15T17:36:30.084Z,86.39
2022-12-15T17:39:39.155Z,86.49
2022-12-15T17:42:48.732Z,85.87
2022-12-15T17:45:59.253Z,87.02
2022-12-15T17:49:08.107Z,86.33
2022-12-15T17:52:29.242Z,86.08
2022-12-15T17:55:38.113Z,86.26
2022-12-15T17:58:46.482Z,86.63
2022-12-15T18:01:57.441Z,86.00
2022-12-15T18:05:07.377Z,86.19
2022-12-15T18:08:20.828Z,86.81
2022-12-15T18:11:30.589Z,86.50
2022-12-15T18:14:39.166Z,86.82
2022-12-15T18:17:50.702Z,86.30
2022-12-15T18:21:03.775Z,86.75
2022-12-15T18:24:15.046Z,85.59
2022-12-15T18:27:26.586Z,86.46
2022-12-15T18:30:35.199Z,85.74
2022-12-15T18:33:46.406Z,85.88
2022-12-15T18:36:54.953Z,85.33
2022-12-15T18:40:05.182Z,85.87
2022-12-15T18:43:17.480Z,86.63
2022-12-15T18:46:26.516Z,85.96
2022-12-15T18:49:36.229Z,86.01
2022-12-15T18:52:45.165Z,86.27
2022-12-15T18:55:54.836Z,85.65
2022-12-15T18:59:18.337Z,86.00
2022-12-15T19:02:26.868Z,86.65
2022-12-15T19:05:38.244Z,86.60
2022-12-15T19:08:47.241Z,86.09
2022-12-15T19:12:13.034Z,86.10
2022-12-15T19:15:23.079Z,86.35
2022-12-15T19:18:49.067Z,85.91
2022-12-15T19:22:16.435Z,86.45
2022-12-15T19:25:30.153Z,86.46
2022-12-15T19:28:38.463Z,86.52
2022-12-15T19:31:47.575Z,86.79
2022-12-15T19:34:55.950Z,86.23
2022-12-15T19:38:06.758Z,86.33
2022-12-15T19:41:17.255Z,85.49
2022-12-15T19:44:27.424Z,85.91
2022-12-15T19:47:35.914Z,85.78
2022-12-15T19:50:44.753Z,86.59
2022-12-15T19:53:54.512Z,87.21
2022-12-15T19:57:02.995Z,86.77
2022-12-15T20:00:21.756Z,86.53
2022-12-15T20:03:34.093Z,86.36
2022-12-15T20:06:44.060Z,87.54
2022-12-15T20:09:53.904Z,86.87
2022-12-15T20:13:03.576Z,87.36
2022-12-15T20:16:17.479Z,87.25
2022-12-15T20:19:26.313Z,87.91
2022-12-15T20:22:34.977Z,86.95
2022-12-15T20:25:46.364Z,86.52
2022-12-15T20:28:55.349Z,86.45
2022-12-15T20:32:03.720Z,86.82
2022-12-15T20:35:19.552Z,86.86
2022-12-15T20:38:33.717Z,86.82
2022-12-15T20:41:43.513Z,86.63
2022-12-15T20:44:51.806Z,86.12
2022-12-15T20:48:02.958Z,86.80
2022-12-15T20:51:25.658Z,86.09
2022-12-15T20:54:34.555Z,86.60
2022-12-15T20:57:44.622Z,86.82
2022-12-15T21:00:54.793Z,86.87
2022-12-15T21:04:19.658Z,86.63
2022-12-15T21:07:28.101Z,86.20
2022-12-15T21:10:36.770Z,86.01
2022-12-15T21:13:49.446Z,86.11
2022-12-15T21:16:58.092Z,86.93
2022-12-15T21:20:07.801Z,86.18
2022-12-15T21:23:23.924Z,86.68
2022-12-15T21:26:32.430Z,86.25
2022-12-15T21:29:47.385Z,86.74
2022-12-15T21:32:58.836Z,86.56
2022-12-15T21:36:14.797Z,87.07
2022-12-15T21:39:29.608Z,86.97
2022-12-15T21:42:39.169Z,86.58
2022-12-15T21:45:49.745Z,86.74
2022-12-15T21:49:18.233Z,86.49
2022-12-15T21:52:30.340Z,86.55
2022-12-15T21:55:48.453Z,86.07
2022-12-15T21:58:59.640Z,86.09
2022-12-15T22:02:26.149Z,85.98
2022-12-15T22:05:34.564Z,86.23
2022-12-15T22:08:45.266Z,86.96
2022-12-15T22:11:57.500Z,86.68
2022-12-15T22:15:15.509Z,86.50
2022-12-15T22:18:25.179Z,86.68
2022-12-15T22:21:33.559Z,86.29
2022-12-15T22:24:42.228Z,86.05
2022-12-15T22:27:51.726Z,85.47
2022-12-15T22:31:02.811Z,86.61
2022-12-15T22:34:18.100Z,86.61
2022-12-15T22:37:26.353Z,86.02
2022-12-15T22:40:35.019Z,87.06
2022-12-15T22:43:47.625Z,87.11
2022-12-15T22:47:00.749Z,86.90
2022-12-15T22:50:19.787Z,86.89
2022-12-15T22:53:32.955Z,86.64
2022-12-15T22:56:42.647Z,86.71
2022-12-15T23:00:00.608Z,87.38
2022-12-15T23:03:13.515Z,87.16
2022-12-15T23:06:24.251Z,86.99
2022-12-15T23:09:32.614Z,86.81
2022-12-15T23:12:40.416Z,86.62
2022-12-15T23:16:06.865Z,86.91
2022-12-15T23:19:23.784Z,86.39
2022-12-15T23:22:33.634Z,86.71
2022-12-15T23:25:41.914Z,86.54
2022-12-15T23:28:50.387Z,86.52
2022-12-15T23:31:59.017Z,86.01
2022-12-15T23:35:08.412Z,85.77
2022-12-15T23:38:18.118Z,85.70
2022-12-15T23:41:27.479Z,86.08
2022-12-15T23:44:37.333Z,85.82
2022-12-15T23:47:46.051Z,85.62
2022-12-15T23:50:54.690Z,86.81
2022-12-15T23:54:04.592Z,85.96
2022-12-15T23:57:13.312Z,85.69
